sensor_id;sensor_type;location;lat;lon;timestamp;pressure;altitude;pressure_sealevel;temperature;humidity
53715;BME280;39608;55.630;37.864;2023-06-14T00:04:48;99880.09;;;16.48;43.44
53715;BME280;39608;55.630;37.864;2023-06-14T00:09:51;99874.28;;;16.41;43.93
53715;BME280;39608;55.630;37.864;2023-06-14T00:14:55;99882.50;;;16.50;43.91
53715;BME280;39608;55.630;37.864;2023-06-14T00:19:57;99884.91;;;16.51;43.84
53715;BME280;39608;55.630;37.864;2023-06-14T00:24:59;99885.09;;;16.37;44.09
53715;BME280;39608;55.630;37.864;2023-06-14T00:30:04;99878.88;;;16.11;45.08
53715;BME280;39608;55.630;37.864;2023-06-14T00:35:06;99880.31;;;15.99;45.09
53715;BME280;39608;55.630;37.864;2023-06-14T00:40:09;99881.25;;;15.86;45.32
53715;BME280;39608;55.630;37.864;2023-06-14T00:45:15;99878.72;;;15.89;45.99
53715;BME280;39608;55.630;37.864;2023-06-14T00:50:17;99877.88;;;15.89;45.44
53715;BME280;39608;55.630;37.864;2023-06-14T00:55:20;99878.38;;;15.82;45.75
53715;BME280;39608;55.630;37.864;2023-06-14T01:00:24;99881.75;;;15.79;46.11
53715;BME280;39608;55.630;37.864;2023-06-14T01:05:27;99887.22;;;15.79;46.39
53715;BME280;39608;55.630;37.864;2023-06-14T01:10:35;99887.72;;;15.81;47.29
53715;BME280;39608;55.630;37.864;2023-06-14T01:15:41;99880.94;;;15.87;46.88
53715;BME280;39608;55.630;37.864;2023-06-14T01:20:45;99884.50;;;15.88;46.55
53715;BME280;39608;55.630;37.864;2023-06-14T01:25:51;99877.56;;;15.90;47.15
53715;BME280;39608;55.630;37.864;2023-06-14T01:30:54;99878.72;;;15.89;47.30
53715;BME280;39608;55.630;37.864;2023-06-14T01:35:56;99888.50;;;15.90;47.67
53715;BME280;39608;55.630;37.864;2023-06-14T01:41:00;99885.16;;;15.94;48.35
53715;BME280;39608;55.630;37.864;2023-06-14T01:46:03;99889.78;;;15.84;48.21
53715;BME280;39608;55.630;37.864;2023-06-14T01:51:05;99893.00;;;15.86;47.97
53715;BME280;39608;55.630;37.864;2023-06-14T01:56:09;99888.34;;;16.04;47.65
53715;BME280;39608;55.630;37.864;2023-06-14T02:01:11;99892.69;;;16.05;47.15
53715;BME280;39608;55.630;37.864;2023-06-14T02:06:13;99882.38;;;16.11;46.94
53715;BME280;39608;55.630;37.864;2023-06-14T02:11:17;99892.69;;;16.32;47.23
53715;BME280;39608;55.630;37.864;2023-06-14T02:16:19;99891.69;;;16.45;46.47
53715;BME280;39608;55.630;37.864;2023-06-14T02:21:22;99888.78;;;16.50;46.35
53715;BME280;39608;55.630;37.864;2023-06-14T02:26:26;99892.63;;;16.67;45.76
53715;BME280;39608;55.630;37.864;2023-06-14T02:31:29;99890.34;;;16.69;45.31
53715;BME280;39608;55.630;37.864;2023-06-14T02:36:31;99894.38;;;16.71;45.51
53715;BME280;39608;55.630;37.864;2023-06-14T02:41:35;99900.31;;;16.82;45.46
53715;BME280;39608;55.630;37.864;2023-06-14T02:46:37;99894.03;;;16.90;45.42
53715;BME280;39608;55.630;37.864;2023-06-14T02:51:39;99900.13;;;16.96;45.36
53715;BME280;39608;55.630;37.864;2023-06-14T02:56:43;99893.47;;;17.06;45.41
53715;BME280;39608;55.630;37.864;2023-06-14T03:01:46;99903.78;;;17.09;45.18
53715;BME280;39608;55.630;37.864;2023-06-14T03:06:48;99894.03;;;17.20;44.91
53715;BME280;39608;55.630;37.864;2023-06-14T03:11:52;99895.72;;;17.42;45.08
53715;BME280;39608;55.630;37.864;2023-06-14T03:16:54;99901.88;;;17.60;44.80
53715;BME280;39608;55.630;37.864;2023-06-14T03:21:57;99906.19;;;17.70;44.58
53715;BME280;39608;55.630;37.864;2023-06-14T03:27:01;99910.13;;;17.82;44.61
53715;BME280;39608;55.630;37.864;2023-06-14T03:32:03;99914.50;;;17.83;44.52
53715;BME280;39608;55.630;37.864;2023-06-14T03:37:05;99903.19;;;17.84;44.75
53715;BME280;39608;55.630;37.864;2023-06-14T03:42:09;99905.00;;;18.01;44.56
53715;BME280;39608;55.630;37.864;2023-06-14T03:47:11;99900.72;;;18.12;44.26
53715;BME280;39608;55.630;37.864;2023-06-14T03:52:13;99907.28;;;18.20;43.92
53715;BME280;39608;55.630;37.864;2023-06-14T03:57:18;99907.53;;;18.27;43.83
53715;BME280;39608;55.630;37.864;2023-06-14T04:02:20;99912.69;;;18.29;43.52
53715;BME280;39608;55.630;37.864;2023-06-14T04:07:23;99903.25;;;18.39;43.17
53715;BME280;39608;55.630;37.864;2023-06-14T04:12:26;99897.06;;;18.42;42.64
53715;BME280;39608;55.630;37.864;2023-06-14T04:17:29;99892.06;;;18.56;42.59
53715;BME280;39608;55.630;37.864;2023-06-14T04:22:31;99892.81;;;18.78;41.75
53715;BME280;39608;55.630;37.864;2023-06-14T04:27:35;99896.53;;;18.94;40.87
53715;BME280;39608;55.630;37.864;2023-06-14T04:32:38;99900.66;;;19.01;40.71
53715;BME280;39608;55.630;37.864;2023-06-14T04:37:40;99895.84;;;19.22;40.29
53715;BME280;39608;55.630;37.864;2023-06-14T04:42:45;99892.38;;;19.50;40.08
53715;BME280;39608;55.630;37.864;2023-06-14T04:47:47;99899.69;;;19.71;39.71
53715;BME280;39608;55.630;37.864;2023-06-14T04:52:52;99899.56;;;19.92;39.45
53715;BME280;39608;55.630;37.864;2023-06-14T04:57:55;99894.19;;;20.24;38.70
53715;BME280;39608;55.630;37.864;2023-06-14T05:02:57;99893.41;;;20.39;38.41
53715;BME280;39608;55.630;37.864;2023-06-14T05:08:01;99893.91;;;20.57;37.95
53715;BME280;39608;55.630;37.864;2023-06-14T05:13:05;99892.09;;;20.77;37.64
53715;BME280;39608;55.630;37.864;2023-06-14T05:18:07;99890.13;;;20.94;37.39
53715;BME280;39608;55.630;37.864;2023-06-14T05:23:10;99899.56;;;21.09;37.00
53715;BME280;39608;55.630;37.864;2023-06-14T05:28:17;99890.47;;;21.56;36.28
53715;BME280;39608;55.630;37.864;2023-06-14T05:33:19;99888.97;;;22.37;34.72
53715;BME280;39608;55.630;37.864;2023-06-14T05:38:21;99899.44;;;23.13;34.18
53715;BME280;39608;55.630;37.864;2023-06-14T05:43:25;99901.09;;;23.71;32.68
53715;BME280;39608;55.630;37.864;2023-06-14T05:48:27;99894.53;;;24.14;31.81
53715;BME280;39608;55.630;37.864;2023-06-14T05:53:30;99895.63;;;24.77;29.85
53715;BME280;39608;55.630;37.864;2023-06-14T05:58:33;99899.84;;;25.08;29.62
53715;BME280;39608;55.630;37.864;2023-06-14T06:03:35;99891.44;;;25.50;28.52
53715;BME280;39608;55.630;37.864;2023-06-14T06:08:56;99898.03;;;25.97;27.87
53715;BME280;39608;55.630;37.864;2023-06-14T06:14:49;99882.22;;;26.12;27.40
53715;BME280;39608;55.630;37.864;2023-06-14T06:20:14;99885.50;;;26.32;27.91
53715;BME280;39608;55.630;37.864;2023-06-14T06:52:45;99912.22;;;27.59;23.04
53715;BME280;39608;55.630;37.864;2023-06-14T06:58:26;99888.38;;;26.72;24.19
53715;BME280;39608;55.630;37.864;2023-06-14T07:03:28;99872.06;;;27.03;23.67
53715;BME280;39608;55.630;37.864;2023-06-14T07:08:32;99882.75;;;27.55;23.51
53715;BME280;39608;55.630;37.864;2023-06-14T07:13:35;99903.03;;;27.62;24.09
53715;BME280;39608;55.630;37.864;2023-06-14T07:18:37;99902.53;;;27.96;23.27
53715;BME280;39608;55.630;37.864;2023-06-14T07:23:41;99905.31;;;28.07;23.00
53715;BME280;39608;55.630;37.864;2023-06-14T07:28:43;99893.41;;;27.89;23.24
53715;BME280;39608;55.630;37.864;2023-06-14T07:33:46;99889.56;;;27.43;22.97
53715;BME280;39608;55.630;37.864;2023-06-14T07:38:50;99879.94;;;27.69;23.36
53715;BME280;39608;55.630;37.864;2023-06-14T07:43:55;99877.06;;;28.05;22.61
53715;BME280;39608;55.630;37.864;2023-06-14T07:48:59;99878.97;;;28.15;22.43
53715;BME280;39608;55.630;37.864;2023-06-14T07:54:31;99872.94;;;28.28;22.07
53715;BME280;39608;55.630;37.864;2023-06-14T08:00:02;99877.84;;;28.02;22.59
53715;BME280;39608;55.630;37.864;2023-06-14T08:05:15;99844.53;;;28.44;22.08
53715;BME280;39608;55.630;37.864;2023-06-14T08:10:27;99838.84;;;28.58;21.95
53715;BME280;39608;55.630;37.864;2023-06-14T08:16:03;99882.16;;;28.17;21.81
53715;BME280;39608;55.630;37.864;2023-06-14T08:21:09;99859.72;;;28.39;22.15
53715;BME280;39608;55.630;37.864;2023-06-14T08:26:17;99882.91;;;28.92;20.54
53715;BME280;39608;55.630;37.864;2023-06-14T08:31:22;99885.34;;;28.83;20.53
53715;BME280;39608;55.630;37.864;2023-06-14T08:36:24;99874.13;;;28.90;20.40
53715;BME280;39608;55.630;37.864;2023-06-14T08:41:28;99877.59;;;29.05;20.62
53715;BME280;39608;55.630;37.864;2023-06-14T08:46:32;99870.19;;;29.29;20.30
53715;BME280;39608;55.630;37.864;2023-06-14T08:51:36;99852.13;;;29.41;20.00
53715;BME280;39608;55.630;37.864;2023-06-14T08:56:46;99855.22;;;29.89;20.42
53715;BME280;39608;55.630;37.864;2023-06-14T09:01:50;99853.03;;;29.69;19.67
53715;BME280;39608;55.630;37.864;2023-06-14T09:06:53;99849.53;;;29.96;19.96
53715;BME280;39608;55.630;37.864;2023-06-14T09:11:57;99845.94;;;30.23;19.97
53715;BME280;39608;55.630;37.864;2023-06-14T09:17:00;99837.88;;;30.28;19.22
53715;BME280;39608;55.630;37.864;2023-06-14T09:22:07;99839.50;;;29.98;19.32
53715;BME280;39608;55.630;37.864;2023-06-14T09:27:31;99834.03;;;30.18;19.91
53715;BME280;39608;55.630;37.864;2023-06-14T09:32:43;99837.63;;;29.88;20.18
53715;BME280;39608;55.630;37.864;2023-06-14T09:37:58;99804.09;;;30.15;19.66
53715;BME280;39608;55.630;37.864;2023-06-14T09:49:59;99830.59;;;30.85;19.29
53715;BME280;39608;55.630;37.864;2023-06-14T09:56:04;99777.75;;;30.64;19.76
53715;BME280;39608;55.630;37.864;2023-06-14T10:01:47;99774.53;;;30.14;19.07
53715;BME280;39608;55.630;37.864;2023-06-14T10:07:18;99810.69;;;30.56;19.40
53715;BME280;39608;55.630;37.864;2023-06-14T10:13:11;99787.56;;;30.25;18.76
53715;BME280;39608;55.630;37.864;2023-06-14T10:19:29;99810.09;;;31.16;18.83
53715;BME280;39608;55.630;37.864;2023-06-14T10:38:59;99805.16;;;32.37;17.53
53715;BME280;39608;55.630;37.864;2023-06-14T10:44:42;99759.00;;;32.21;18.09
53715;BME280;39608;55.630;37.864;2023-06-14T10:50:08;99779.28;;;31.76;17.90
53715;BME280;39608;55.630;37.864;2023-06-14T10:55:36;99761.28;;;31.73;17.93
53715;BME280;39608;55.630;37.864;2023-06-14T11:00:50;99786.81;;;31.59;18.25
53715;BME280;39608;55.630;37.864;2023-06-14T11:06:00;99775.22;;;31.57;18.27
53715;BME280;39608;55.630;37.864;2023-06-14T11:11:21;99752.47;;;32.08;17.97
53715;BME280;39608;55.630;37.864;2023-06-14T11:16:26;99758.13;;;32.24;17.81
53715;BME280;39608;55.630;37.864;2023-06-14T11:21:39;99775.59;;;32.82;17.38
53715;BME280;39608;55.630;37.864;2023-06-14T11:26:41;99748.31;;;32.49;17.34
53715;BME280;39608;55.630;37.864;2023-06-14T11:31:45;99756.56;;;32.40;17.50
53715;BME280;39608;55.630;37.864;2023-06-14T11:36:48;99751.81;;;32.53;17.22
53715;BME280;39608;55.630;37.864;2023-06-14T11:41:50;99751.34;;;31.69;17.82
53715;BME280;39608;55.630;37.864;2023-06-14T11:46:53;99750.31;;;31.43;18.61
53715;BME280;39608;55.630;37.864;2023-06-14T11:51:57;99729.06;;;31.98;17.71
53715;BME280;39608;55.630;37.864;2023-06-14T11:56:59;99722.88;;;32.23;17.83
53715;BME280;39608;55.630;37.864;2023-06-14T12:02:05;99740.84;;;32.42;17.94
53715;BME280;39608;55.630;37.864;2023-06-14T12:07:10;99724.38;;;32.90;18.35
53715;BME280;39608;55.630;37.864;2023-06-14T12:12:15;99710.94;;;32.52;18.20
53715;BME280;39608;55.630;37.864;2023-06-14T12:17:19;99709.91;;;32.30;17.54
53715;BME280;39608;55.630;37.864;2023-06-14T12:22:21;99696.94;;;32.19;18.06
53715;BME280;39608;55.630;37.864;2023-06-14T12:27:23;99699.00;;;32.32;17.61
53715;BME280;39608;55.630;37.864;2023-06-14T12:32:31;99700.00;;;32.87;17.89
53715;BME280;39608;55.630;37.864;2023-06-14T12:37:37;99699.00;;;33.36;17.23
53715;BME280;39608;55.630;37.864;2023-06-14T12:42:44;99703.00;;;32.64;17.33
53715;BME280;39608;55.630;37.864;2023-06-14T12:47:49;99692.63;;;32.31;17.85
53715;BME280;39608;55.630;37.864;2023-06-14T12:52:52;99676.69;;;32.57;17.66
53715;BME280;39608;55.630;37.864;2023-06-14T12:57:54;99676.03;;;32.83;17.43
53715;BME280;39608;55.630;37.864;2023-06-14T13:03:00;99696.19;;;32.94;17.64
53715;BME280;39608;55.630;37.864;2023-06-14T13:08:06;99666.25;;;32.74;17.89
53715;BME280;39608;55.630;37.864;2023-06-14T13:13:09;99683.16;;;33.30;17.19
53715;BME280;39608;55.630;37.864;2023-06-14T13:18:18;99677.47;;;33.72;17.31
53715;BME280;39608;55.630;37.864;2023-06-14T13:23:22;99681.84;;;33.99;16.17
53715;BME280;39608;55.630;37.864;2023-06-14T13:28:25;99669.50;;;33.83;17.33
53715;BME280;39608;55.630;37.864;2023-06-14T13:33:29;99667.44;;;33.97;16.44
53715;BME280;39608;55.630;37.864;2023-06-14T13:38:31;99669.47;;;33.96;16.05
53715;BME280;39608;55.630;37.864;2023-06-14T13:43:33;99661.47;;;33.82;16.02
53715;BME280;39608;55.630;37.864;2023-06-14T13:48:36;99658.75;;;34.17;16.19
53715;BME280;39608;55.630;37.864;2023-06-14T13:53:39;99657.09;;;33.68;16.83
53715;BME280;39608;55.630;37.864;2023-06-14T13:58:41;99651.56;;;33.64;17.19
53715;BME280;39608;55.630;37.864;2023-06-14T14:03:45;99642.13;;;33.58;16.86
53715;BME280;39608;55.630;37.864;2023-06-14T14:08:47;99656.63;;;33.56;16.84
53715;BME280;39608;55.630;37.864;2023-06-14T14:13:49;99655.34;;;33.19;16.99
53715;BME280;39608;55.630;37.864;2023-06-14T14:18:54;99663.53;;;33.13;17.13
53715;BME280;39608;55.630;37.864;2023-06-14T14:23:56;99652.03;;;32.95;16.68
53715;BME280;39608;55.630;37.864;2023-06-14T14:28:59;99641.00;;;32.87;17.23
53715;BME280;39608;55.630;37.864;2023-06-14T14:34:02;99645.84;;;32.87;17.12
53715;BME280;39608;55.630;37.864;2023-06-14T14:39:04;99632.94;;;32.14;17.36
53715;BME280;39608;55.630;37.864;2023-06-14T14:44:07;99648.00;;;31.87;17.70
53715;BME280;39608;55.630;37.864;2023-06-14T14:49:11;99651.56;;;31.88;17.99
53715;BME280;39608;55.630;37.864;2023-06-14T14:54:13;99633.44;;;31.39;18.65
53715;BME280;39608;55.630;37.864;2023-06-14T14:59:15;99643.41;;;30.40;19.14
53715;BME280;39608;55.630;37.864;2023-06-14T15:04:23;99641.28;;;29.49;20.24
53715;BME280;39608;55.630;37.864;2023-06-14T15:09:25;99644.19;;;28.73;21.49
53715;BME280;39608;55.630;37.864;2023-06-14T15:14:28;99644.19;;;28.31;21.11
53715;BME280;39608;55.630;37.864;2023-06-14T15:19:32;99627.34;;;27.97;21.34
53715;BME280;39608;55.630;37.864;2023-06-14T15:24:34;99649.03;;;27.75;22.07
53715;BME280;39608;55.630;37.864;2023-06-14T15:29:36;99651.16;;;27.53;21.95
53715;BME280;39608;55.630;37.864;2023-06-14T15:34:40;99655.13;;;27.52;22.61
53715;BME280;39608;55.630;37.864;2023-06-14T15:39:43;99647.22;;;27.46;22.28
53715;BME280;39608;55.630;37.864;2023-06-14T15:44:45;99652.44;;;27.37;22.44
53715;BME280;39608;55.630;37.864;2023-06-14T15:49:49;99649.66;;;27.26;22.54
53715;BME280;39608;55.630;37.864;2023-06-14T15:54:51;99665.63;;;27.19;22.62
53715;BME280;39608;55.630;37.864;2023-06-14T15:59:54;99647.69;;;27.20;22.35
53715;BME280;39608;55.630;37.864;2023-06-14T16:05:13;99591.84;;;26.74;22.55
53715;BME280;39608;55.630;37.864;2023-06-14T16:10:15;99654.22;;;26.88;23.24
53715;BME280;39608;55.630;37.864;2023-06-14T16:15:17;99653.81;;;26.86;22.95
53715;BME280;39608;55.630;37.864;2023-06-14T16:20:21;99664.56;;;26.84;23.31
53715;BME280;39608;55.630;37.864;2023-06-14T16:25:23;99655.06;;;26.74;23.36
53715;BME280;39608;55.630;37.864;2023-06-14T16:30:25;99671.75;;;26.56;23.86
53715;BME280;39608;55.630;37.864;2023-06-14T16:35:29;99668.22;;;26.37;24.30
53715;BME280;39608;55.630;37.864;2023-06-14T16:40:32;99684.06;;;26.26;24.46
53715;BME280;39608;55.630;37.864;2023-06-14T16:45:34;99685.28;;;26.18;24.64
53715;BME280;39608;55.630;37.864;2023-06-14T16:50:38;99682.09;;;26.12;24.34
53715;BME280;39608;55.630;37.864;2023-06-14T16:55:40;99691.63;;;26.07;24.96
53715;BME280;39608;55.630;37.864;2023-06-14T17:00:42;99675.72;;;25.90;24.91
53715;BME280;39608;55.630;37.864;2023-06-14T17:05:55;99691.97;;;25.88;25.20
53715;BME280;39608;55.630;37.864;2023-06-14T17:10:58;99692.28;;;25.39;25.19
53715;BME280;39608;55.630;37.864;2023-06-14T17:16:01;99693.75;;;25.19;25.05
53715;BME280;39608;55.630;37.864;2023-06-14T17:21:05;99684.91;;;24.95;25.49
53715;BME280;39608;55.630;37.864;2023-06-14T17:26:07;99693.59;;;24.90;26.00
53715;BME280;39608;55.630;37.864;2023-06-14T17:31:09;99650.91;;;24.46;26.00
53715;BME280;39608;55.630;37.864;2023-06-14T17:36:14;99683.84;;;24.55;26.47
53715;BME280;39608;55.630;37.864;2023-06-14T17:41:17;99702.03;;;24.52;26.53
53715;BME280;39608;55.630;37.864;2023-06-14T17:46:19;99677.31;;;24.29;26.92
53715;BME280;39608;55.630;37.864;2023-06-14T17:51:23;99709.38;;;24.26;27.09
53715;BME280;39608;55.630;37.864;2023-06-14T17:56:26;99704.09;;;24.11;27.27
53715;BME280;39608;55.630;37.864;2023-06-14T18:01:28;99689.06;;;23.74;27.30
53715;BME280;39608;55.630;37.864;2023-06-14T18:06:32;99691.69;;;23.60;27.52
53715;BME280;39608;55.630;37.864;2023-06-14T18:11:36;99711.00;;;23.56;27.57
53715;BME280;39608;55.630;37.864;2023-06-14T18:16:38;99722.84;;;23.53;27.77
53715;BME280;39608;55.630;37.864;2023-06-14T18:21:42;99714.44;;;23.42;27.80
53715;BME280;39608;55.630;37.864;2023-06-14T18:26:44;99718.94;;;23.23;28.54
53715;BME280;39608;55.630;37.864;2023-06-14T18:31:47;99710.84;;;23.11;28.42
53715;BME280;39608;55.630;37.864;2023-06-14T18:36:51;99722.75;;;23.12;28.57
53715;BME280;39608;55.630;37.864;2023-06-14T18:41:54;99710.19;;;22.91;28.57
53715;BME280;39608;55.630;37.864;2023-06-14T18:46:56;99728.69;;;22.87;29.12
53715;BME280;39608;55.630;37.864;2023-06-14T18:52:00;99730.44;;;22.72;28.87
53715;BME280;39608;55.630;37.864;2023-06-14T18:57:02;99729.16;;;22.66;29.38
53715;BME280;39608;55.630;37.864;2023-06-14T19:02:05;99725.13;;;22.60;29.12
53715;BME280;39608;55.630;37.864;2023-06-14T19:07:09;99713.63;;;22.58;29.35
53715;BME280;39608;55.630;37.864;2023-06-14T19:12:11;99716.56;;;22.42;29.72
53715;BME280;39608;55.630;37.864;2023-06-14T19:17:14;99721.50;;;22.32;29.90
53715;BME280;39608;55.630;37.864;2023-06-14T19:22:17;99717.47;;;22.26;29.58
53715;BME280;39608;55.630;37.864;2023-06-14T19:27:19;99714.88;;;22.14;30.08
53715;BME280;39608;55.630;37.864;2023-06-14T19:32:21;99721.88;;;22.08;30.17
53715;BME280;39608;55.630;37.864;2023-06-14T19:37:24;99721.75;;;22.00;30.34
53715;BME280;39608;55.630;37.864;2023-06-14T19:42:26;99721.50;;;21.86;30.70
53715;BME280;39608;55.630;37.864;2023-06-14T19:47:29;99732.44;;;21.82;30.65
53715;BME280;39608;55.630;37.864;2023-06-14T19:52:33;99736.81;;;21.83;30.60
53715;BME280;39608;55.630;37.864;2023-06-14T19:57:35;99726.38;;;21.73;30.93
53715;BME280;39608;55.630;37.864;2023-06-14T20:02:37;99736.59;;;21.73;30.84
53715;BME280;39608;55.630;37.864;2023-06-14T20:07:40;99737.72;;;21.68;31.21
53715;BME280;39608;55.630;37.864;2023-06-14T20:12:43;99735.31;;;21.66;30.97
53715;BME280;39608;55.630;37.864;2023-06-14T20:17:45;99735.72;;;21.49;31.29
53715;BME280;39608;55.630;37.864;2023-06-14T20:22:48;99741.81;;;21.39;31.58
53715;BME280;39608;55.630;37.864;2023-06-14T20:27:51;99743.13;;;21.25;32.10
53715;BME280;39608;55.630;37.864;2023-06-14T20:32:54;99751.06;;;21.27;31.90
53715;BME280;39608;55.630;37.864;2023-06-14T20:37:57;99743.13;;;21.06;32.16
53715;BME280;39608;55.630;37.864;2023-06-14T20:43:00;99746.91;;;21.17;32.00
53715;BME280;39608;55.630;37.864;2023-06-14T20:48:04;99744.69;;;21.07;32.43
53715;BME280;39608;55.630;37.864;2023-06-14T20:53:08;99744.13;;;20.81;33.05
53715;BME280;39608;55.630;37.864;2023-06-14T20:58:10;99753.38;;;20.89;32.37
53715;BME280;39608;55.630;37.864;2023-06-14T21:03:13;99737.72;;;20.77;32.98
53715;BME280;39608;55.630;37.864;2023-06-14T21:08:16;99749.22;;;20.79;32.88
53715;BME280;39608;55.630;37.864;2023-06-14T21:13:18;99743.16;;;20.74;33.08
53715;BME280;39608;55.630;37.864;2023-06-14T21:18:20;99735.50;;;20.67;32.89
53715;BME280;39608;55.630;37.864;2023-06-14T21:23:24;99732.28;;;20.65;32.98
53715;BME280;39608;55.630;37.864;2023-06-14T21:28:26;99745.53;;;20.59;33.17
53715;BME280;39608;55.630;37.864;2023-06-14T21:33:28;99733.72;;;20.59;32.97
53715;BME280;39608;55.630;37.864;2023-06-14T21:38:31;99725.09;;;20.60;33.27
53715;BME280;39608;55.630;37.864;2023-06-14T21:43:34;99721.75;;;20.51;33.29
53715;BME280;39608;55.630;37.864;2023-06-14T21:48:37;99721.81;;;20.55;33.34
53715;BME280;39608;55.630;37.864;2023-06-14T21:53:40;99728.78;;;20.48;33.50
53715;BME280;39608;55.630;37.864;2023-06-14T21:58:44;99720.34;;;20.41;33.59
53715;BME280;39608;55.630;37.864;2023-06-14T22:03:46;99722.72;;;20.43;33.57
53715;BME280;39608;55.630;37.864;2023-06-14T22:08:49;99728.66;;;20.45;33.29
53715;BME280;39608;55.630;37.864;2023-06-14T22:13:51;99725.28;;;20.35;33.39
53715;BME280;39608;55.630;37.864;2023-06-14T22:18:53;99729.28;;;20.38;33.27
53715;BME280;39608;55.630;37.864;2023-06-14T22:23:58;99721.75;;;20.35;33.12
53715;BME280;39608;55.630;37.864;2023-06-14T22:29:00;99725.66;;;20.34;33.26
53715;BME280;39608;55.630;37.864;2023-06-14T22:34:05;99724.50;;;20.35;33.14
53715;BME280;39608;55.630;37.864;2023-06-14T22:39:10;99726.00;;;20.32;32.86
53715;BME280;39608;55.630;37.864;2023-06-14T22:44:12;99722.34;;;20.28;32.76
53715;BME280;39608;55.630;37.864;2023-06-14T22:49:17;99725.94;;;20.29;32.70
53715;BME280;39608;55.630;37.864;2023-06-14T22:54:20;99716.84;;;20.28;32.74
53715;BME280;39608;55.630;37.864;2023-06-14T22:59:22;99717.03;;;20.20;32.56
53715;BME280;39608;55.630;37.864;2023-06-14T23:04:26;99720.50;;;20.16;32.55
53715;BME280;39608;55.630;37.864;2023-06-14T23:09:29;99720.94;;;20.18;32.78
53715;BME280;39608;55.630;37.864;2023-06-14T23:14:31;99718.91;;;20.15;32.68
53715;BME280;39608;55.630;37.864;2023-06-14T23:19:33;99724.75;;;20.14;32.63
53715;BME280;39608;55.630;37.864;2023-06-14T23:24:37;99723.44;;;20.08;32.81
53715;BME280;39608;55.630;37.864;2023-06-14T23:29:41;99719.25;;;19.98;32.62
53715;BME280;39608;55.630;37.864;2023-06-14T23:34:43;99719.16;;;19.94;32.57
53715;BME280;39608;55.630;37.864;2023-06-14T23:39:46;99712.31;;;19.88;32.96
53715;BME280;39608;55.630;37.864;2023-06-14T23:44:50;99718.28;;;19.78;33.04
53715;BME280;39608;55.630;37.864;2023-06-14T23:49:53;99707.78;;;19.67;32.99
53715;BME280;39608;55.630;37.864;2023-06-14T23:54:56;99695.78;;;19.60;33.21
